Time;durP1;ratioP1;P1;durP2;ratioP2;P2;SDS_P1;SDS_P2;PMS_P1;PMS_P2;Temp;Humidity;BMP_temperature;BMP_pressure;BME280_temperature;BME280_humidity;BME280_pressure;Samples;Min_cycle;Max_cycle;Signal;HPM_P1;HPM_P2
2022/07/29 00:00:01;;;;;;;10.40;4.38;;;;;;;16.49;100.00;101372.31;5011715;28;20539;-88
2022/07/29 00:02:28;;;;;;;10.10;4.45;;;;;;;16.52;100.00;101372.16;5009719;28;20439;-88
2022/07/29 00:04:55;;;;;;;10.48;4.00;;;;;;;16.85;100.00;101399.56;5025025;28;20061;-88
2022/07/29 00:07:21;;;;;;;11.02;4.85;;;;;;;16.42;100.00;101330.44;4998530;28;20050;-87
2022/07/29 00:09:48;;;;;;;11.57;4.65;;;;;;;16.76;100.00;101365.66;5008557;28;20093;-88
2022/07/29 00:12:22;;;;;;;16.85;6.40;;;;;;;16.47;100.00;101392.69;5000641;28;20053;-88
2022/07/29 00:14:56;;;;;;;13.38;6.78;;;;;;;16.29;100.00;101391.84;5025252;28;20092;-88
2022/07/29 00:17:24;;;;;;;13.85;5.78;;;;;;;16.33;100.00;101396.03;5005346;28;20046;-88
2022/07/29 00:19:50;;;;;;;11.48;5.60;;;;;;;16.35;100.00;101387.19;5006294;28;20046;-88
2022/07/29 00:22:17;;;;;;;13.00;6.38;;;;;;;16.35;100.00;101382.75;5007753;28;20770;-88
2022/07/29 00:24:44;;;;;;;11.40;4.70;;;;;;;16.45;100.00;101397.19;5010082;28;20389;-88
2022/07/29 00:27:11;;;;;;;13.95;5.75;;;;;;;16.38;100.00;101401.09;5006523;28;20050;-88
2022/07/29 00:29:38;;;;;;;13.35;5.72;;;;;;;16.38;100.00;101382.59;5003891;28;20053;-87
2022/07/29 00:32:05;;;;;;;14.95;6.07;;;;;;;16.28;100.00;101386.63;5005935;28;20064;-88
2022/07/29 00:37:17;;;;;;;13.43;6.13;;;;;;;16.06;100.00;101379.81;5005594;28;20060;-87
2022/07/29 00:39:44;;;;;;;12.15;5.75;;;;;;;16.17;100.00;101378.41;5018271;28;20960;-87
2022/07/29 00:42:11;;;;;;;9.70;5.05;;;;;;;16.27;100.00;101393.72;5010847;28;20053;-88
2022/07/29 00:44:41;;;;;;;12.35;5.00;;;;;;;16.30;100.00;101382.13;5006971;28;20046;-88
2022/07/29 00:47:09;;;;;;;13.70;5.10;;;;;;;16.22;100.00;101369.31;5009848;28;20046;-88
2022/07/29 00:49:39;;;;;;;11.35;5.80;;;;;;;16.22;100.00;101400.16;5006313;28;20066;-87
2022/07/29 00:52:07;;;;;;;12.63;5.60;;;;;;;16.14;100.00;101385.53;4999670;28;20081;-87
2022/07/29 00:54:35;;;;;;;11.70;5.18;;;;;;;16.29;100.00;101405.06;5011812;28;20046;-87
2022/07/29 00:57:10;;;;;;;10.80;5.03;;;;;;;16.30;100.00;101387.41;5006850;28;20041;-87
2022/07/29 00:59:37;;;;;;;11.65;4.35;;;;;;;16.30;100.00;101372.41;5007256;28;20053;-87
2022/07/29 01:02:04;;;;;;;14.27;5.28;;;;;;;16.36;100.00;101388.88;5002256;28;20062;-87
2022/07/29 01:04:32;;;;;;;10.50;4.55;;;;;;;16.43;100.00;101400.84;5003282;28;20046;-88
2022/07/29 01:07:01;;;;;;;10.15;4.10;;;;;;;16.39;100.00;101407.22;5006088;28;20548;-87
2022/07/29 01:09:29;;;;;;;11.25;4.75;;;;;;;16.20;100.00;101373.84;5000533;28;20089;-88
2022/07/29 01:12:12;;;;;;;13.43;5.93;;;;;;;16.14;100.00;101374.13;5008168;28;20053;-87
2022/07/29 01:14:40;;;;;;;11.23;5.10;;;;;;;15.96;100.00;101338.09;5008198;28;20479;-87
2022/07/29 01:17:32;;;;;;;14.07;5.43;;;;;;;16.18;100.00;101370.38;5005909;28;20089;-88
2022/07/29 01:20:20;;;;;;;12.15;4.97;;;;;;;16.36;100.00;101391.53;5005216;28;20056;-88
2022/07/29 01:22:52;;;;;;;11.82;5.80;;;;;;;16.28;100.00;101395.41;5002118;28;20125;-88
2022/07/29 01:25:44;;;;;;;10.95;4.57;;;;;;;16.24;100.00;101396.50;5010517;28;20050;-88
2022/07/29 01:28:29;;;;;;;11.63;5.25;;;;;;;16.25;100.00;101398.19;5006607;28;20499;-88
2022/07/29 01:30:58;;;;;;;13.95;4.70;;;;;;;16.20;100.00;101392.31;5009776;28;20057;-88
2022/07/29 01:36:17;;;;;;;11.52;5.38;;;;;;;16.24;100.00;101408.88;5010198;28;20857;-87
2022/07/29 01:38:50;;;;;;;13.00;5.53;;;;;;;16.22;100.00;101408.06;5005714;28;20060;-87
2022/07/29 01:41:19;;;;;;;;;;;;;;;16.24;100.00;101400.94;5002404;28;20057;-87
2022/07/29 01:43:57;;;;;;;9.73;4.88;;;;;;;16.31;100.00;101394.41;5004943;28;19973;-87
2022/07/29 01:46:39;;;;;;;11.30;4.85;;;;;;;16.34;100.00;101394.22;5007130;28;20050;-87
2022/07/29 01:49:13;;;;;;;10.50;4.63;;;;;;;16.35;100.00;101403.03;5003694;28;20046;-87
2022/07/29 01:51:47;;;;;;;13.27;5.45;;;;;;;16.22;100.00;101382.53;5009124;28;20056;-87
2022/07/29 01:54:20;;;;;;;12.82;5.20;;;;;;;16.20;100.00;101384.41;5004887;28;20046;-87
2022/07/29 01:56:50;;;;;;;11.82;4.93;;;;;;;16.26;100.00;101396.44;5013021;28;20054;-87
2022/07/29 01:59:19;;;;;;;11.38;5.38;;;;;;;16.33;100.00;101395.19;4999404;28;20165;-87
2022/07/29 02:01:49;;;;;;;12.35;5.00;;;;;;;16.27;100.00;101393.72;5003098;28;20483;-87
2022/07/29 02:04:21;;;;;;;12.40;4.57;;;;;;;16.25;100.00;101386.78;5017084;28;20051;-87
2022/07/29 02:07:00;;;;;;;12.57;6.18;;;;;;;16.23;100.00;101386.00;5017733;28;20163;-87
2022/07/29 02:09:29;;;;;;;12.00;4.80;;;;;;;16.43;100.00;101400.84;4999123;28;20054;-87
2022/07/29 02:11:58;;;;;;;9.45;4.35;;;;;;;16.35;100.00;101380.09;5003511;28;20046;-87
2022/07/29 02:14:28;;;;;;;11.50;4.60;;;;;;;16.33;100.00;101382.81;5002183;28;20477;-86
2022/07/29 02:16:58;;;;;;;13.40;4.60;;;;;;;16.37;100.00;101395.88;5005554;28;20061;-87
2022/07/29 02:19:27;;;;;;;12.07;5.22;;;;;;;16.13;100.00;101373.28;5024808;28;20048;-87
2022/07/29 02:21:56;;;;;;;11.65;4.95;;;;;;;16.24;100.00;101385.09;5008589;28;20137;-86
2022/07/29 02:24:24;;;;;;;11.68;4.43;;;;;;;16.28;100.00;101386.63;5007185;28;20061;-87
2022/07/29 02:26:55;;;;;;;14.45;4.55;;;;;;;16.38;100.00;101393.16;5006212;28;20041;-87
2022/07/29 02:29:24;;;;;;;10.65;4.72;;;;;;;16.36;100.00;101381.81;5006378;28;20065;-86
2022/07/29 02:31:53;;;;;;;12.23;4.65;;;;;;;16.47;100.00;101374.19;5008990;28;20049;-87
2022/07/29 02:34:21;;;;;;;11.15;4.22;;;;;;;16.60;100.00;101371.75;5011319;28;20044;-87
2022/07/29 02:36:49;;;;;;;9.60;4.88;;;;;;;16.64;100.00;101373.31;5004874;28;20480;-87
2022/07/29 02:39:17;;;;;;;9.82;3.85;;;;;;;16.62;100.00;101377.78;5009562;28;20598;-87
2022/07/29 02:41:48;;;;;;;7.82;3.25;;;;;;;16.40;100.00;101354.28;5007430;28;20046;-87
2022/07/29 02:44:18;;;;;;;14.80;5.45;;;;;;;16.70;100.00;101388.00;5021663;28;20052;-87
2022/07/29 02:46:51;;;;;;;10.98;4.72;;;;;;;16.28;100.00;101366.34;5007331;28;20050;-87
2022/07/29 02:49:27;;;;;;;8.95;4.00;;;;;;;16.62;100.00;101377.78;5006260;28;20427;-87
2022/07/29 02:52:23;;;;;;;14.43;4.18;;;;;;;16.49;100.00;101382.88;5009886;28;20045;-87
2022/07/29 02:55:01;;;;;;;13.45;4.65;;;;;;;16.35;100.00;101373.97;5008500;28;20050;-87
2022/07/29 02:57:56;;;;;;;9.80;4.28;;;;;;;16.44;100.00;101376.97;5008223;28;20066;-87
2022/07/29 03:00:34;;;;;;;7.38;3.25;;;;;;;16.64;100.00;101370.66;5007128;28;20050;-87
2022/07/29 03:03:07;;;;;;;11.45;3.60;;;;;;;16.69;100.00;101367.75;5007695;28;20042;-87
2022/07/29 03:05:34;;;;;;;;;;;;;;;16.75;100.00;101378.03;5017530;28;20057;-88
2022/07/29 03:08:06;;;;;;;7.57;3.30;;;;;;;16.52;100.00;101358.94;5006546;28;20008;-88
2022/07/29 03:10:34;;;;;;;10.90;3.90;;;;;;;16.37;100.00;101343.03;5008890;28;20050;-87
2022/07/29 03:13:01;;;;;;;7.93;2.90;;;;;;;16.52;100.00;101361.59;5008690;28;20045;-87
2022/07/29 03:15:28;;;;;;;9.50;3.30;;;;;;;16.43;100.00;101324.19;5008823;28;20057;-88
2022/07/29 03:17:56;;;;;;;10.88;3.47;;;;;;;16.37;100.00;101338.59;5007456;28;20468;-88
2022/07/29 03:20:23;;;;;;;10.18;3.85;;;;;;;16.31;100.00;101379.41;5006123;28;20057;-87
2022/07/29 03:22:50;;;;;;;11.48;4.47;;;;;;;16.08;100.00;101346.25;5001384;28;20128;-87
2022/07/29 03:25:19;;;;;;;11.43;4.38;;;;;;;16.26;100.00;101377.94;5010149;28;20050;-87
2022/07/29 03:27:47;;;;;;;10.82;3.92;;;;;;;16.36;100.00;101386.22;5004230;28;20161;-87
2022/07/29 03:30:14;;;;;;;9.50;4.05;;;;;;;16.29;100.00;101383.06;5004150;28;20080;-87
2022/07/29 03:32:48;;;;;;;10.93;4.30;;;;;;;15.98;100.00;101344.16;5002168;28;20046;-86
2022/07/29 03:35:19;;;;;;;11.52;4.18;;;;;;;15.95;100.00;101329.28;5006761;28;20103;-86
2022/07/29 03:37:46;;;;;;;8.98;3.65;;;;;;;16.45;100.00;101381.34;5008043;28;20057;-86
2022/07/29 03:40:21;;;;;;;9.25;3.90;;;;;;;16.33;100.00;101384.63;5005363;28;20051;-86
2022/07/29 03:42:51;;;;;;;11.50;3.85;;;;;;;16.36;100.00;101368.63;5007689;28;20213;-86
2022/07/29 03:45:19;;;;;;;8.40;4.00;;;;;;;16.22;100.00;101349.94;5005737;28;20439;-86
2022/07/29 03:47:50;;;;;;;8.80;3.78;;;;;;;16.26;100.00;101360.28;5007549;28;20042;-87
2022/07/29 03:50:23;;;;;;;12.68;4.05;;;;;;;16.02;100.00;101335.13;5001222;28;20038;-87
2022/07/29 03:52:50;;;;;;;11.02;4.00;;;;;;;15.84;100.00;101307.88;5006653;28;20046;-87
2022/07/29 03:55:18;;;;;;;9.35;3.53;;;;;;;16.16;100.00;101359.03;5008884;28;20112;-86
2022/07/29 03:57:46;;;;;;;10.82;3.90;;;;;;;16.25;100.00;101379.72;5008901;28;20056;-86
2022/07/29 04:00:15;;;;;;;8.52;3.88;;;;;;;15.85;100.00;101323.63;5006506;28;20064;-86
2022/07/29 04:02:47;;;;;;;8.85;3.30;;;;;;;16.31;100.00;101382.03;5003998;28;20046;-86
2022/07/29 04:05:15;;;;;;;;;;;;;;;16.43;100.00;101383.22;5008412;28;20056;-87
2022/07/29 04:07:47;;;;;;;8.35;3.35;;;;;;;15.94;100.00;101332.88;5007588;28;19925;-86
2022/07/29 04:10:18;;;;;;;7.70;3.45;;;;;;;15.71;100.00;101311.09;5007712;28;20137;-86
2022/07/29 04:12:57;;;;;;;15.55;4.00;;;;;;;16.08;100.00;101358.59;5004811;28;20053;-86
2022/07/29 04:15:24;;;;;;;8.68;3.72;;;;;;;16.25;100.00;101377.06;5006199;28;20050;-86
2022/07/29 04:17:50;;;;;;;10.23;4.05;;;;;;;16.18;100.00;101378.31;5004573;28;20058;-86
2022/07/29 04:20:18;;;;;;;10.30;4.25;;;;;;;16.02;100.00;101357.09;5010406;28;20056;-86
2022/07/29 04:22:45;;;;;;;13.90;4.13;;;;;;;16.10;100.00;101354.94;5003128;28;20050;-86
2022/07/29 04:25:11;;;;;;;10.75;4.00;;;;;;;16.16;100.00;101343.19;5007094;28;20050;-86
2022/07/29 04:27:59;;;;;;;9.40;4.28;;;;;;;15.75;100.00;101317.94;5011730;28;20049;-86
2022/07/29 04:30:25;;;;;;;11.38;4.72;;;;;;;16.12;100.00;101374.19;5006486;28;20054;-86
2022/07/29 04:32:52;;;;;;;12.55;4.38;;;;;;;16.07;100.00;101349.81;5011870;28;20056;-87
2022/07/29 04:35:19;;;;;;;10.50;4.63;;;;;;;16.03;100.00;101357.97;5013295;28;20064;-86
2022/07/29 04:37:46;;;;;;;13.93;5.53;;;;;;;16.00;100.00;101358.97;5011995;28;20053;-86
2022/07/29 04:40:13;;;;;;;10.68;4.72;;;;;;;15.96;100.00;101343.38;5011791;28;20511;-87
2022/07/29 04:42:40;;;;;;;11.60;5.28;;;;;;;16.05;100.00;101354.31;5005519;28;20066;-86
2022/07/29 04:45:12;;;;;;;11.43;5.00;;;;;;;16.18;100.00;101365.09;5013883;28;20124;-87
2022/07/29 04:47:40;;;;;;;10.95;4.63;;;;;;;16.07;100.00;101354.25;5008997;28;20042;-87
2022/07/29 04:50:08;;;;;;;12.57;4.75;;;;;;;16.12;100.00;101355.72;5020108;28;20050;-86
2022/07/29 04:52:35;;;;;;;15.40;6.40;;;;;;;16.09;100.00;101361.13;5011257;28;20085;-86
2022/07/29 04:55:04;;;;;;;16.65;6.82;;;;;;;16.06;100.00;101371.88;5008447;28;20060;-86
2022/07/29 04:57:31;;;;;;;13.48;6.13;;;;;;;15.86;100.00;101361.44;5010702;28;20060;-87
2022/07/29 04:59:57;;;;;;;11.65;6.32;;;;;;;16.05;100.00;101367.53;5010397;28;20057;-87
2022/07/29 05:02:24;;;;;;;12.80;6.10;;;;;;;16.12;100.00;101362.78;5007082;28;20053;-87
2022/07/29 05:04:51;;;;;;;14.05;5.20;;;;;;;16.12;100.00;101353.06;5011100;28;20073;-87
2022/07/29 05:07:18;;;;;;;13.73;5.50;;;;;;;16.44;100.00;101368.19;5011897;28;20054;-87
2022/07/29 05:09:44;;;;;;;11.40;4.60;;;;;;;16.34;100.00;101351.94;5011191;28;20075;-87
2022/07/29 05:12:11;;;;;;;13.88;5.68;;;;;;;16.14;100.00;101345.06;5027764;28;20480;-87
2022/07/29 05:14:38;;;;;;;12.02;5.18;;;;;;;16.39;100.00;101357.00;5019182;28;20056;-87
2022/07/29 05:17:05;;;;;;;11.45;5.05;;;;;;;16.21;100.00;101362.31;5004449;28;20492;-87
2022/07/29 05:19:32;;;;;;;12.65;4.78;;;;;;;16.10;100.00;101311.81;5023392;28;20045;-87
2022/07/29 05:22:05;;;;;;;11.73;4.13;;;;;;;16.46;100.00;101353.97;5011069;28;20050;-88
2022/07/29 05:24:32;;;;;;;11.32;4.47;;;;;;;16.54;100.00;101356.22;5010908;28;20084;-86
2022/07/29 05:26:59;;;;;;;15.15;4.95;;;;;;;16.40;100.00;101370.16;5011435;28;20046;-86
2022/07/29 05:29:26;;;;;;;10.68;4.32;;;;;;;16.48;100.00;101373.25;5011117;28;20076;-86
2022/07/29 05:32:12;;;;;;;15.38;5.10;;;;;;;16.32;100.00;101383.78;5011649;28;20522;-87
2022/07/29 05:34:39;;;;;;;12.60;4.78;;;;;;;16.49;100.00;101382.03;5013383;28;20077;-87
2022/07/29 05:37:17;;;;;;;12.65;5.35;;;;;;;16.52;100.00;101384.53;5011201;28;20069;-87
2022/07/29 05:39:44;;;;;;;11.98;3.50;;;;;;;16.72;100.00;101372.03;5012079;28;20480;-87
2022/07/29 05:42:16;;;;;;;14.73;4.60;;;;;;;16.61;100.00;101356.72;5026042;28;20088;-87
2022/07/29 05:44:43;;;;;;;11.93;3.95;;;;;;;16.64;100.00;101383.88;5024124;28;20071;-87
2022/07/29 05:47:10;;;;;;;13.15;4.38;;;;;;;16.76;100.00;101376.22;5016418;28;20058;-87
2022/07/29 05:49:37;;;;;;;13.15;4.85;;;;;;;16.54;100.00;101345.66;5010265;28;20132;-87
2022/07/29 05:52:04;;;;;;;13.70;3.53;;;;;;;16.84;100.00;101371.41;5006502;28;20141;-86
2022/07/29 05:54:31;;;;;;;9.70;3.63;;;;;;;16.82;100.00;101373.22;5025150;28;20121;-85
2022/07/29 05:56:58;;;;;;;11.57;3.45;;;;;;;16.73;100.00;101353.44;5033763;28;20045;-87
2022/07/29 05:59:25;;;;;;;8.18;2.72;;;;;;;16.84;100.00;101356.41;5014361;28;20050;-86
2022/07/29 06:01:56;;;;;;;9.02;2.90;;;;;;;16.77;100.00;101332.97;5015459;28;20052;-87
2022/07/29 06:04:24;;;;;;;10.55;3.90;;;;;;;16.84;100.00;101374.06;5028398;28;20411;-86
2022/07/29 06:06:54;;;;;;;11.48;4.13;;;;;;;16.67;100.00;101364.34;5021375;28;20054;-87
2022/07/29 06:09:20;;;;;;;10.95;3.95;;;;;;;16.72;100.00;101374.69;5016155;28;20745;-87
2022/07/29 06:11:47;;;;;;;13.23;5.20;;;;;;;16.48;100.00;101344.19;5028601;28;20056;-86
2022/07/29 06:14:14;;;;;;;13.73;3.42;;;;;;;16.51;100.00;101324.66;5025435;28;20045;-87
2022/07/29 06:16:42;;;;;;;11.32;3.33;;;;;;;16.70;100.00;101343.03;5015928;28;20104;-87
2022/07/29 06:19:09;;;;;;;16.27;4.82;;;;;;;16.45;100.00;101332.88;5015159;28;20165;-86
2022/07/29 06:21:36;;;;;;;14.93;4.38;;;;;;;16.43;100.00;101342.69;5012510;28;20054;-86
2022/07/29 06:24:10;;;;;;;10.70;3.17;;;;;;;16.77;100.00;101356.75;5010878;28;20038;-88
2022/07/29 06:26:40;;;;;;;8.45;2.70;;;;;;;16.69;100.00;101363.31;5023226;28;20053;-87
2022/07/29 06:29:08;;;;;;;9.32;3.05;;;;;;;16.51;100.00;101380.16;5006508;28;20129;-87
2022/07/29 06:31:35;;;;;;;12.77;3.33;;;;;;;16.42;100.00;101339.22;5014028;28;20085;-87
2022/07/29 06:34:02;;;;;;;8.35;2.78;;;;;;;16.49;100.00;101350.31;5024071;28;20045;-88
2022/07/29 06:36:30;;;;;;;11.70;3.90;;;;;;;16.58;100.00;101344.53;5005019;28;20145;-87
2022/07/29 06:38:57;;;;;;;11.25;4.28;;;;;;;16.34;100.00;101330.81;5005372;28;20065;-86
2022/07/29 06:41:25;;;;;;;15.82;3.72;;;;;;;16.27;100.00;101327.66;5007891;28;20409;-86
2022/07/29 06:43:52;;;;;;;10.48;2.42;;;;;;;16.39;100.00;101317.38;5007823;28;20050;-88
2022/07/29 06:46:21;;;;;;;10.85;2.72;;;;;;;16.76;100.00;101365.66;5014489;28;20046;-88
2022/07/29 06:48:49;;;;;;;15.63;3.35;;;;;;;16.58;100.00;101370.97;5005478;28;20419;-88
2022/07/29 06:51:16;;;;;;;10.95;3.03;;;;;;;16.66;100.00;101334.41;5013842;28;20050;-88
2022/07/29 06:53:50;;;;;;;14.73;3.50;;;;;;;16.68;100.00;101360.78;5011914;28;20444;-89
2022/07/29 06:56:32;;;;;;;12.15;4.55;;;;;;;16.38;100.00;101350.88;5003977;28;20054;-87
2022/07/29 06:59:06;;;;;;;18.02;4.22;;;;;;;16.36;100.00;101333.38;5006394;28;20057;-87
2022/07/29 07:01:33;;;;;;;12.65;3.35;;;;;;;16.34;100.00;101341.38;5021456;28;20060;-88
2022/07/29 07:04:00;;;;;;;11.65;2.53;;;;;;;16.53;100.00;101336.00;5013400;28;20503;-87
2022/07/29 07:06:27;;;;;;;8.70;2.80;;;;;;;16.84;100.00;101380.19;5027039;28;20050;-87
2022/07/29 07:08:54;;;;;;;9.95;2.83;;;;;;;16.63;100.00;101316.06;5014991;28;20049;-88
2022/07/29 07:11:21;;;;;;;11.43;3.45;;;;;;;16.54;100.00;101344.78;5009173;28;20052;-87
2022/07/29 07:13:48;;;;;;;11.73;3.70;;;;;;;17.10;100.00;101377.91;5005481;28;20056;-88
2022/07/29 07:16:15;;;;;;;14.15;3.47;;;;;;;16.77;100.00;101343.53;5008545;28;20059;-88
2022/07/29 07:18:44;;;;;;;10.73;2.67;;;;;;;17.10;100.00;101385.00;5006695;28;20453;-88
2022/07/29 07:21:12;;;;;;;15.18;5.43;;;;;;;16.20;100.00;101320.13;5008650;28;20049;-88
2022/07/29 07:23:45;;;;;;;11.60;3.63;;;;;;;16.28;100.00;101358.41;5016744;28;20544;-88
2022/07/29 07:26:12;;;;;;;15.25;4.13;;;;;;;16.47;100.00;101362.75;5008127;28;20046;-87
2022/07/29 07:28:39;;;;;;;14.00;3.15;;;;;;;16.70;100.00;101343.03;5022952;28;20153;-88
2022/07/29 07:31:06;;;;;;;9.93;2.83;;;;;;;16.69;100.00;101325.44;5019554;28;20077;-87
2022/07/29 07:33:33;;;;;;;15.45;5.20;;;;;;;16.68;100.00;101352.84;5009492;28;20088;-88
2022/07/29 07:36:00;;;;;;;14.15;3.65;;;;;;;16.95;100.00;101362.91;5013016;28;20049;-87
2022/07/29 07:38:26;;;;;;;14.43;3.88;;;;;;;16.88;100.00;101360.56;5012146;28;20046;-87
2022/07/29 07:40:53;;;;;;;12.73;3.20;;;;;;;17.09;100.00;101355.06;5010366;28;20563;-88
2022/07/29 07:43:21;;;;;;;14.35;3.35;;;;;;;17.16;100.00;101379.41;5015401;28;20052;-87
2022/07/29 07:45:48;;;;;;;8.70;3.05;;;;;;;16.97;100.00;101338.06;5012986;28;20431;-86
2022/07/29 07:48:15;;;;;;;14.40;4.60;;;;;;;17.27;100.00;101384.94;5012764;28;20468;-87
2022/07/29 07:50:43;;;;;;;10.40;3.05;;;;;;;17.35;100.00;101353.63;5011225;28;20416;-87
2022/07/29 07:53:10;;;;;;;9.80;3.15;;;;;;;17.70;100.00;101374.56;5009504;28;20094;-87
2022/07/29 07:55:42;;;;;;;8.88;2.30;;;;;;;18.02;100.00;101372.75;5008134;28;20831;-87
2022/07/29 07:58:28;;;;;;;11.10;3.08;;;;;;;17.98;100.00;101347.34;5005264;28;20053;-86
2022/07/29 08:00:55;;;;;;;12.20;4.95;;;;;;;17.41;100.00;101347.13;5011146;28;20045;-87
2022/07/29 08:03:22;;;;;;;10.93;3.00;;;;;;;17.86;100.00;101353.38;5015105;28;20408;-88
2022/07/29 08:05:51;;;;;;;8.85;2.75;;;;;;;18.16;100.00;101371.91;5018226;28;20054;-90
2022/07/29 08:08:21;;;;;;;11.50;3.42;;;;;;;18.36;100.00;101396.38;5017133;28;20046;-88
2022/07/29 08:10:53;;;;;;;8.95;2.97;;;;;;;18.36;100.00;101324.78;5012986;28;20046;-88
2022/07/29 08:13:21;;;;;;;13.23;4.03;;;;;;;19.49;100.00;101383.16;5009119;28;20054;-87
2022/07/29 08:15:57;;;;;;;9.60;2.65;;;;;;;20.15;100.00;101331.91;5012733;28;20046;-88
2022/07/29 08:18:25;;;;;;;7.40;2.47;;;;;;;20.41;100.00;101340.75;5011298;28;20579;-86
2022/07/29 08:20:52;;;;;;;12.00;2.78;;;;;;;20.36;100.00;101349.06;5008747;28;20107;-87
2022/07/29 08:23:19;;;;;;;8.95;2.55;;;;;;;20.80;100.00;101345.09;5013450;28;20125;-87
2022/07/29 08:25:46;;;;;;;12.40;3.33;;;;;;;21.19;100.00;101311.22;5009252;28;20635;-87
2022/07/29 08:28:16;;;;;;;12.73;2.63;;;;;;;21.44;100.00;101336.06;5004718;28;20092;-87
2022/07/29 08:30:43;;;;;;;11.68;2.65;;;;;;;21.69;100.00;101347.59;5010981;28;20443;-88
2022/07/29 08:33:10;;;;;;;11.50;2.45;;;;;;;21.69;100.00;101337.81;5011795;28;20060;-87
2022/07/29 08:35:38;;;;;;;12.40;2.70;;;;;;;20.68;100.00;101322.03;5026968;28;20475;-87
2022/07/29 08:38:06;;;;;;;9.38;2.97;;;;;;;20.43;100.00;101302.47;5012969;28;20046;-87
2022/07/29 08:40:32;;;;;;;8.65;2.25;;;;;;;20.97;100.00;101332.41;5002085;28;20137;-87
2022/07/29 08:43:07;;;;;;;9.18;2.58;;;;;;;20.84;100.00;101364.38;5013819;28;20149;-87
2022/07/29 08:45:46;;;;;;;9.05;1.95;;;;;;;21.21;100.00;101330.63;5011252;28;20473;-90
2022/07/29 08:48:22;;;;;;;8.65;2.03;;;;;;;21.19;100.00;101316.56;5009845;28;20115;-90
2022/07/29 08:50:54;;;;;;;12.90;2.30;;;;;;;21.61;100.00;101345.50;5015156;28;20050;-89
2022/07/29 08:53:26;;;;;;;5.65;1.95;;;;;;;21.31;100.00;101360.09;5010325;28;20049;-89
2022/07/29 08:55:55;;;;;;;7.30;2.25;;;;;;;21.96;100.00;101352.69;5008491;28;20053;-90
2022/07/29 08:58:23;;;;;;;7.68;2.17;;;;;;;21.74;100.00;101327.66;5012948;28;20500;-89
2022/07/29 09:00:53;;;;;;;8.85;2.42;;;;;;;21.51;100.00;101358.66;5004140;28;20058;-88
2022/07/29 09:03:30;;;;;;;9.02;2.40;;;;;;;21.00;100.00;101357.00;5009902;28;20049;-87
2022/07/29 09:06:01;;;;;;;15.23;2.40;;;;;;;21.39;100.00;101357.72;5010687;28;20045;-88
2022/07/29 09:08:30;;;;;;;13.23;2.90;;;;;;;21.76;100.00;101362.16;5007262;28;20133;-87
2022/07/29 09:11:03;;;;;;;10.65;2.35;;;;;;;21.38;100.00;101352.50;5009938;28;20065;-87
2022/07/29 09:13:33;;;;;;;11.73;3.33;;;;;;;21.01;100.00;101326.75;5006524;28;20057;-89
2022/07/29 09:16:03;;;;;;;11.85;2.35;;;;;;;21.51;100.00;101339.16;5007690;28;20070;-88
2022/07/29 09:18:35;;;;;;;6.53;1.90;;;;;;;21.90;100.00;101343.34;5011810;28;20062;-88
2022/07/29 09:24:12;;;;;;;8.18;2.00;;;;;;;22.21;100.00;101345.47;5013171;28;20046;-88
2022/07/29 09:26:46;;;;;;;7.93;2.03;;;;;;;22.18;100.00;101312.69;5008517;28;20052;-88
2022/07/29 09:29:14;;;;;;;7.47;2.10;;;;;;;22.44;100.00;101338.38;5010961;28;20140;-88
2022/07/29 09:31:43;;;;;;;9.75;2.22;;;;;;;21.79;100.00;101309.47;5009421;28;20046;-88
2022/07/29 09:34:14;;;;;;;10.70;2.75;;;;;;;21.91;100.00;101341.50;5015223;28;20086;-89
2022/07/29 09:36:46;;;;;;;10.13;2.70;;;;;;;21.60;100.00;101344.66;5007899;28;20046;-88
2022/07/29 09:39:14;;;;;;;10.38;2.90;;;;;;;21.84;100.00;101334.94;5012971;28;20105;-89
2022/07/29 09:41:55;;;;;;;10.05;2.92;;;;;;;21.67;100.00;101334.38;5001017;28;20394;-89
2022/07/29 09:44:22;;;;;;;10.07;2.92;;;;;;;21.26;100.00;101340.09;5005814;28;20037;-89
2022/07/29 09:47:06;;;;;;;9.43;2.70;;;;;;;21.19;100.00;101305.91;5005064;28;20054;-89
2022/07/29 09:49:34;;;;;;;8.95;3.03;;;;;;;21.44;100.00;101320.09;5010056;28;20132;-88
2022/07/29 09:52:09;;;;;;;11.52;2.92;;;;;;;20.89;100.00;101346.25;5012754;28;20050;-87
2022/07/29 09:54:36;;;;;;;8.75;2.78;;;;;;;20.30;100.00;101286.50;5015785;28;20073;-88
2022/07/29 09:57:22;;;;;;;9.63;2.75;;;;;;;20.43;100.00;101294.50;5008100;28;20482;-90
2022/07/29 10:00:06;;;;;;;7.93;2.35;;;;;;;21.29;100.00;101335.38;5010338;28;20507;-88
2022/07/29 10:02:37;;;;;;;10.95;2.60;;;;;;;21.35;100.00;101331.41;5007306;28;20054;-89
2022/07/29 10:05:16;;;;;;;11.38;2.70;;;;;;;21.30;100.00;101330.91;5013431;28;20045;-89
2022/07/29 10:07:51;;;;;;;14.15;3.35;;;;;;;21.53;100.00;101331.91;5011364;28;20408;-88
2022/07/29 10:10:28;;;;;;;8.93;2.50;;;;;;;21.78;100.00;101313.13;5021362;28;20064;-90
2022/07/29 10:13:05;;;;;;;12.02;3.13;;;;;;;21.67;100.00;101290.91;5017640;28;20057;-87
2022/07/29 10:15:40;;;;;;;8.80;2.38;;;;;;;21.81;100.00;101280.03;5009544;28;20042;-88
2022/07/29 10:18:09;;;;;;;12.07;2.33;;;;;;;22.59;100.00;101323.78;5002742;28;20064;-87
2022/07/29 10:20:37;;;;;;;10.00;2.97;;;;;;;22.08;100.00;101334.88;5010833;28;20069;-85
2022/07/29 10:23:04;;;;;;;10.35;2.85;;;;;;;21.36;100.00;101304.69;5002896;28;20058;-86
2022/07/29 10:25:32;;;;;;;10.25;2.88;;;;;;;21.36;100.00;101290.53;5007903;28;20053;-87
2022/07/29 10:27:58;;;;;;;8.65;2.47;;;;;;;21.35;100.00;101300.31;5017382;28;20056;-86
2022/07/29 10:30:28;;;;;;;10.80;2.55;;;;;;;21.19;100.00;101319.22;5005898;28;20062;-87
2022/07/29 10:33:11;;;;;;;7.45;2.30;;;;;;;21.30;100.00;101298.94;5009775;28;20476;-89
2022/07/29 10:36:01;;;;;;;6.13;2.25;;;;;;;21.58;100.00;101298.66;5012165;28;20046;-88
2022/07/29 10:38:51;;;;;;;10.70;2.40;;;;;;;21.34;100.00;101287.97;5012983;28;20050;-88
2022/07/29 10:41:40;;;;;;;10.45;2.25;;;;;;;21.98;100.00;101342.75;5021245;28;20140;-88
2022/07/29 10:44:15;;;;;;;7.82;2.38;;;;;;;21.46;100.00;101280.03;5015166;28;20046;-88
2022/07/29 10:46:49;;;;;;;8.15;1.85;;;;;;;22.44;100.00;101315.19;5009841;28;20097;-88
2022/07/29 10:49:18;;;;;;;10.15;2.67;;;;;;;22.01;100.00;101297.19;5005024;28;20081;-86
2022/07/29 10:52:08;;;;;;;12.05;2.67;;;;;;;21.78;100.00;101326.44;5009207;28;20133;-88
2022/07/29 10:54:36;;;;;;;9.10;2.35;;;;;;;21.09;100.00;101354.63;5012653;28;20125;-88
2022/07/29 10:57:19;;;;;;;12.05;3.17;;;;;;;21.16;100.00;101345.22;5008486;28;20108;-87
2022/07/29 11:00:10;;;;;;;10.68;2.85;;;;;;;21.68;100.00;101319.25;5013356;28;20439;-88
2022/07/29 11:02:44;;;;;;;8.43;2.20;;;;;;;21.53;100.00;101345.22;5000401;28;20480;-89
2022/07/29 11:05:19;;;;;;;6.35;2.20;;;;;;;21.76;100.00;101347.03;5012023;28;20141;-88
2022/07/29 11:08:12;;;;;;;9.07;2.65;;;;;;;21.36;100.00;101344.63;5002366;28;20129;-86
2022/07/29 11:10:46;;;;;;;10.10;2.80;;;;;;;21.29;100.00;101323.91;5021427;28;20092;-87
2022/07/29 11:13:42;;;;;;;14.23;4.00;;;;;;;21.10;100.00;101319.91;5014740;28;20516;-87
2022/07/29 11:16:09;;;;;;;7.88;2.40;;;;;;;21.97;100.00;101336.56;5019575;28;20452;-86
2022/07/29 11:19:12;;;;;;;9.88;1.95;;;;;;;21.41;100.00;101330.97;5010133;28;20077;-86
2022/07/29 11:21:47;;;;;;;10.00;2.75;;;;;;;21.26;100.00;101314.31;5010732;28;20046;-86
2022/07/29 11:24:31;;;;;;;15.13;3.30;;;;;;;21.17;100.00;101331.81;5006369;28;20053;-86
2022/07/29 11:27:14;;;;;;;7.38;2.30;;;;;;;21.68;100.00;101336.09;5010033;28;20468;-87
2022/07/29 11:29:49;;;;;;;8.23;2.25;;;;;;;22.07;100.00;101327.84;5028370;28;20065;-87
2022/07/29 11:32:19;;;;;;;7.85;2.17;;;;;;;21.75;100.00;101315.16;5012312;28;20411;-87
2022/07/29 11:35:09;;;;;;;9.00;2.28;;;;;;;22.42;100.00;101325.16;5009621;28;20053;-89
2022/07/29 11:37:46;;;;;;;8.10;2.30;;;;;;;21.51;100.00;101292.06;5008797;28;20049;-87